Latest Weather Observations for Canterbury

IDN60801

Issued at 11:22 pm EDT Friday 15 November 2019 (issued every 10 minutes, with the page automatically refreshed every 10 minutes)

About weather observations | Map of weather stations | Latest weather observations for NSW | Other Formats
Station Details ID: 066194 Name: CANTERBURY RACECOURSE AWS Lat: -33.91 Lon: 151.11 Height: 3.0 m
Data from the previous 72 hours. | See also: Recent months at Canterbury
Date/Time
EDT
Temp
°C
App
Temp
°C
Dew
Point
°C
Rel
Hum
%
Delta-T
°C
Wind Press
QNH
hPa
Press
MSL
hPa
Rain since
9am
mm
Dir  Spd
km/h
Gust
km/h
Spd
kts
Gust
kts
15/11:00pm 19.2 16.3 14.0 72 3.0 SE 22 32 12 17 - - 0.0
15/10:30pm 19.8 17.3 14.2 70 3.2 SSE 20 35 11 19 - - 0.0
15/10:14pm 22.3 19.9 11.4 50 6.1 S 15 37 8 20 - - 0.0
15/10:00pm 27.4 22.5 -3.4 13 13.6 WSW 13 26 7 14 - - 0.0
15/09:30pm 28.1 21.3 -5.1 11 14.3 W 22 39 12 21 - - 0.0
15/09:00pm 28.3 22.5 -4.9 11 14.3 W 17 30 9 16 - - 0.0
15/08:30pm 28.5 23.4 -4.8 11 14.4 WNW 13 24 7 13 - - 0.0
15/08:00pm 29.1 23.2 -5.6 10 14.9 W 17 32 9 17 - - 0.0
15/07:30pm 30.0 23.7 -6.3 9 15.5 WNW 19 37 10 20 - - 0.0
15/07:00pm 30.6 23.2 -7.4 8 16.0 W 24 43 13 23 - - 0.0
15/06:30pm 30.9 24.6 -5.6 9 15.9 WNW 19 32 10 17 - - 0.0
15/06:00pm 31.4 25.4 -6.8 8 16.4 WNW 17 30 9 16 - - 0.0
15/05:30pm 32.5 25.2 -6.0 8 16.9 W 24 41 13 22 - - 0.0
15/05:00pm 32.8 26.1 -4.2 9 16.8 WNW 22 41 12 22 - - 0.0
15/04:30pm 32.4 26.8 -3.1 10 16.3 NW 17 37 9 20 - - 0.0
15/04:00pm 29.6 24.5 4.3 20 13.0 ENE 20 32 11 17 - - 0.0
15/03:30pm 29.9 26.0 5.2 21 12.9 NE 15 28 8 15 - - 0.0
15/03:00pm 30.7 25.0 -0.8 13 14.9 NE 19 28 10 15 - - 0.0
15/02:30pm 31.4 26.8 1.7 15 14.7 NNW 15 28 8 15 - - 0.0
15/02:00pm 30.9 26.6 1.3 15 14.5 WNW 13 26 7 14 - - 0.0
15/01:30pm 30.0 25.7 3.1 18 13.5 NW 15 26 8 14 - - 0.0
15/01:00pm 28.9 25.3 5.1 22 12.3 WNW 13 24 7 13 - - 0.0
15/12:30pm 28.3 25.0 4.6 22 12.1 WNW 11 22 6 12 - - 0.0
15/12:00pm 27.5 22.8 3.2 21 12.1 WNW 17 24 9 13 - - 0.0
15/11:30am 26.7 22.6 4.5 24 11.2 NW 15 28 8 15 - - 0.0
15/11:00am 26.7 23.7 6.2 27 10.7 WNW 11 24 6 13 - - 0.0
15/10:30am 26.1 22.8 6.2 28 10.3 WNW 13 24 7 13 - - 0.0
15/10:00am 24.6 20.9 6.4 31 9.4 NNW 15 24 8 13 - - 0.0
15/09:30am 23.8 20.6 5.2 30 9.3 NW 11 19 6 10 - - 0.0
15/09:00am 23.5 20.4 5.4 31 9.1 NW 11 19 6 10 - - 0.0
15/08:30am 22.3 19.5 6.9 37 7.9 NW 11 15 6 8 - - 0.0
15/08:00am 20.6 18.8 7.9 44 6.6 NW 7 13 4 7 - - 0.0
15/07:30am 18.0 16.8 9.4 57 4.5 NW 6 9 3 5 - - 0.0
15/07:00am 14.4 15.0 11.9 85 1.3 CALM 0 0 0 0 - - 0.0
15/06:30am 11.7 11.9 10.6 93 0.6 CALM 0 0 0 0 - - 0.0
15/06:00am 10.7 10.6 9.5 92 0.6 CALM 0 0 0 0 - - 0.0
15/05:30am 11.0 10.9 9.6 91 0.7 CALM 0 0 0 0 - - 0.0
15/05:00am 11.6 11.7 10.3 92 0.7 CALM 0 0 0 0 - - 0.0
15/04:30am 11.9 12.0 10.3 90 0.8 CALM 0 0 0 0 - - 0.0
15/04:00am 12.2 12.4 10.4 89 0.9 CALM 0 0 0 0 - - 0.0
15/03:30am 12.1 12.3 10.5 90 0.8 CALM 0 0 0 0 - - 0.0
15/03:00am 12.2 12.4 10.4 89 0.9 CALM 0 0 0 0 - - 0.0
15/02:30am 12.5 12.7 10.4 87 1.1 CALM 0 0 0 0 - - 0.0
15/02:00am 12.7 12.8 10.1 84 1.3 CALM 0 0 0 0 - - 0.0
15/01:30am 13.3 13.5 10.5 83 1.5 CALM 0 0 0 0 - - 0.0
15/01:00am 13.8 14.0 10.6 81 1.7 CALM 0 6 0 3 - - 0.0
15/12:30am 13.5 13.7 10.5 82 1.6 CALM 0 0 0 0 - - 0.0
15/12:00am 15.0 15.4 11.2 78 2.0 CALM 0 0 0 0 - - 0.0
 
Date/Time
EDT
Temp
°C
App
Temp
°C
Dew
Point
°C
Rel
Hum
%
Delta-T
°C
Wind Press
QNH
hPa
Press
MSL
hPa
Rain since
9am
mm
Dir  Spd
km/h
Gust
km/h
Spd
kts
Gust
kts
14/11:30pm 14.8 15.1 10.8 77 2.1 CALM 0 0 0 0 - - 0.0
14/11:00pm 15.0 15.3 11.0 77 2.1 CALM 0 0 0 0 - - 0.0
14/10:30pm 16.1 16.3 10.6 70 2.9 CALM 0 4 0 2 - - 0.0
14/10:00pm 17.2 16.1 9.9 62 3.8 NE 6 7 3 4 - - 0.0
14/09:30pm 17.6 17.3 10.2 62 3.9 ENE 2 7 1 4 - - 0.0
14/09:00pm 18.3 16.9 9.4 56 4.7 E 7 11 4 6 - - 0.0
14/08:30pm 18.1 16.5 8.9 55 4.8 ENE 7 9 4 5 - - 0.0
14/08:00pm 19.0 18.1 9.2 53 5.1 NE 4 9 2 5 - - 0.0
14/07:30pm 19.9 17.5 8.6 48 5.9 E 11 17 6 9 - - 0.0
14/07:00pm 20.5 18.1 8.8 47 6.2 NE 11 17 6 9 - - 0.0
14/06:30pm 21.0 18.1 8.0 43 6.8 NE 13 28 7 15 - - 0.0
14/06:00pm 21.4 17.5 7.3 40 7.3 NE 17 28 9 15 - - 0.0
14/05:30pm 21.7 16.9 7.2 39 7.5 NNE 22 32 12 17 - - 0.0
14/05:00pm 22.7 18.1 6.5 35 8.3 NE 20 32 11 17 - - 0.0
14/04:30pm 23.4 18.3 5.8 32 8.9 NE 22 35 12 19 - - 0.0
14/04:00pm 23.9 18.8 6.2 32 9.1 ENE 22 35 12 19 - - 0.0
14/03:30pm 23.7 18.1 5.6 31 9.2 ENE 24 33 13 18 - - 0.0
14/03:00pm 23.4 17.0 5.3 31 9.1 ENE 28 39 15 21 - - 0.0
14/02:30pm 24.0 17.9 4.9 29 9.6 ENE 26 37 14 20 - - 0.0
14/02:00pm 24.0 17.8 4.4 28 9.7 ENE 26 35 14 19 - - 0.0
14/01:30pm 23.5 18.3 3.4 27 9.7 ENE 20 32 11 17 - - 0.0
14/01:00pm 24.4 19.7 3.1 25 10.3 NNE 17 28 9 15 - - 0.0
14/12:30pm 24.8 20.5 3.5 25 10.4 NNW 15 26 8 14 - - 0.0
14/12:00pm 23.5 19.7 1.8 24 10.2 WNW 11 22 6 12 - - 0.0
14/11:30am 22.9 19.4 1.3 24 10.0 W 9 15 5 8 - - 0.0
14/11:00am 23.2 20.8 4.2 29 9.3 ESE 6 11 3 6 - - 0.0
14/10:30am 22.4 18.9 3.5 29 9.1 S 11 17 6 9 - - 0.0
14/10:00am 21.5 18.1 1.7 27 9.2 WSW 9 17 5 9 - - 0.0
14/09:30am 21.2 17.3 3.4 31 8.5 SW 13 20 7 11 - - 0.0
14/09:00am 20.5 15.6 2.3 30 8.4 WSW 17 26 9 14 - - 0.0
14/08:30am 19.8 15.0 2.6 32 8.0 WSW 17 22 9 12 - - 0.0
14/08:00am 18.9 13.8 1.0 30 8.0 WSW 17 30 9 16 - - 0.0
14/07:30am 18.1 13.9 1.6 33 7.4 WSW 13 24 7 13 - - 0.0
14/07:00am 16.6 13.2 1.9 37 6.6 WSW 9 13 5 7 - - 0.0
14/06:30am 14.0 12.0 2.3 45 5.1 WSW 2 7 1 4 - - 0.0
14/06:00am 12.4 9.6 3.4 54 4.0 WSW 7 11 4 6 - - 0.0
14/05:30am 12.7 9.8 1.7 47 4.7 WSW 6 13 3 7 - - 0.0
14/05:00am 12.7 10.0 2.6 50 4.4 SW 6 11 3 6 - - 0.0
14/04:30am 13.3 9.9 1.9 46 4.9 WSW 9 13 5 7 - - 0.0
14/04:00am 11.1 9.6 3.2 58 3.5 CALM 0 6 0 3 - - 0.0
14/03:30am 11.1 9.6 2.9 57 3.6 CALM 0 0 0 0 - - 0.0
14/03:00am 11.6 9.4 3.6 58 3.5 NNW 4 7 2 4 - - 0.0
14/02:30am 12.7 9.9 2.0 48 4.6 NW 6 9 3 5 - - 0.0
14/02:00am 12.1 10.9 4.6 60 3.4 CALM 0 0 0 0 - - 0.0
14/01:30am 15.3 12.9 -0.1 35 6.5 W 2 7 1 4 - - 0.0
14/01:00am 16.3 13.0 0.4 34 6.8 WSW 7 13 4 7 - - 0.0
14/12:30am 16.8 13.3 1.3 35 6.8 WSW 9 13 5 7 - - 0.0
14/12:00am 14.2 12.1 8.2 67 3.0 W 9 19 5 10 - - 0.0
 
Date/Time
EDT
Temp
°C
App
Temp
°C
Dew
Point
°C
Rel
Hum
%
Delta-T
°C
Wind Press
QNH
hPa
Press
MSL
hPa
Rain since
9am
mm
Dir  Spd
km/h
Gust
km/h
Spd
kts
Gust
kts
13/11:30pm 13.2 12.2 8.9 75 2.2 WNW 4 9 2 5 - - 0.0
13/11:00pm 13.6 13.2 8.2 70 2.7 CALM 0 0 0 0 - - 0.0
13/10:30pm 15.3 13.7 8.1 62 3.6 NNW 6 9 3 5 - - 0.0
13/10:00pm 15.6 14.1 8.6 63 3.6 NNW 6 11 3 6 - - 0.0
13/09:30pm 14.6 14.3 8.8 68 2.9 CALM 0 0 0 0 - - 0.0
13/09:00pm 16.7 14.9 8.1 57 4.4 NNE 7 11 4 6 - - 0.0
13/08:30pm 17.2 15.6 7.8 54 4.8 NNE 6 9 3 5 - - 0.0
13/08:00pm 17.3 15.1 7.9 54 4.8 NNE 9 13 5 7 - - 0.0
13/07:30pm 17.8 15.2 7.8 52 5.1 NE 11 17 6 9 - - 0.0
13/07:00pm 18.6 15.6 7.7 49 5.5 ENE 13 22 7 12 - - 0.0
13/06:30pm 19.0 14.7 7.1 46 6.0 ENE 19 28 10 15 - - 0.0
13/06:00pm 19.3 14.8 6.8 44 6.3 ENE 20 32 11 17 - - 0.0
13/05:30pm 20.0 15.8 7.4 44 6.4 ENE 19 24 10 13 - - 0.0
13/05:00pm 21.0 16.7 5.4 36 7.7 ENE 17 24 9 13 - - 0.0
13/04:30pm 21.0 15.9 4.1 33 8.2 E 20 26 11 14 - - 0.0
13/04:00pm 20.9 15.7 2.7 30 8.5 ENE 19 28 10 15 - - 0.0
13/03:30pm 21.2 16.0 2.5 29 8.8 ENE 19 30 10 16 - - 0.0
13/03:00pm 21.8 16.4 2.5 28 9.1 E 20 30 11 16 - - 0.0
13/02:30pm 21.6 16.2 2.3 28 9.0 E 20 30 11 16 - - 0.0
13/02:00pm 21.0 15.1 1.8 28 8.9 ESE 22 32 12 17 - - 0.0
13/01:30pm 21.7 15.7 0.8 25 9.5 SE 22 35 12 19 - - 0.0
13/01:00pm 22.0 16.4 1.1 25 9.6 SE 20 32 11 17 - - 0.0
13/12:30pm 21.3 16.9 0.5 25 9.4 SSW 13 20 7 11 - - 0.0
13/12:00pm 21.6 15.2 -7.0 14 11.1 SW 19 32 10 17 - - 0.0
13/11:30am 20.4 14.8 -6.2 16 10.4 SW 15 22 8 12 - - 0.0
13/11:00am 20.5 15.2 -7.0 15 10.6 SW 13 24 7 13 - - 0.0
13/10:30am 19.3 13.3 -6.3 17 9.9 SSW 17 26 9 14 - - 0.0
13/10:00am 19.3 13.0 -5.6 18 9.7 SW 19 32 10 17 - - 0.0
13/09:30am 18.8 12.6 -3.3 22 9.0 WSW 20 35 11 19 - - 0.0
13/09:00am 18.2 12.1 -2.1 25 8.4 WSW 20 35 11 19 - - 0.0
13/08:30am 17.7 11.7 -1.5 27 8.0 WSW 20 39 11 21 - - 0.0
13/08:00am 17.1 11.2 -1.1 29 7.7 WSW 20 33 11 18 - - 0.0
13/07:30am 16.7 9.5 -1.9 28 7.7 WSW 26 41 14 22 - - 0.0
13/07:00am 16.2 11.1 0.7 35 6.7 WSW 17 26 9 14 - - 0.0
13/06:30am 14.1 10.7 4.1 51 4.6 WSW 11 17 6 9 - - 0.0
13/06:00am 12.7 10.8 7.6 71 2.5 WNW 7 9 4 5 - - 0.0
13/05:30am 12.9 11.2 8.4 74 2.2 W 7 11 4 6 - - 0.0
13/05:00am 13.2 11.4 9.5 78 1.9 WSW 9 13 5 7 - - 0.0
13/04:30am 13.3 12.3 10.3 82 1.6 NW 6 9 3 5 - - 0.0
13/04:00am 12.6 12.4 9.2 80 1.7 CALM 0 0 0 0 - - 0.0
13/03:30am 13.7 13.5 9.0 73 2.4 CALM 0 0 0 0 - - 0.0
13/03:00am 15.2 14.1 9.8 70 2.8 SSW 6 9 3 5 - - 0.0
13/02:30am 15.4 13.7 9.7 69 3.0 SSW 9 15 5 8 - - 0.0
13/02:00am 16.0 14.0 10.1 68 3.1 S 11 19 6 10 - - 0.0
13/01:30am 16.3 13.2 10.4 68 3.1 SSE 17 28 9 15 - - 0.0
13/01:00am 16.4 13.7 10.5 68 3.1 SSE 15 24 8 13 - - 0.0
13/12:30am 16.6 13.0 10.7 68 3.1 SSE 20 33 11 18 - - 0.0
13/12:00am 16.7 13.2 11.0 69 3.1 SSE 20 39 11 21 - - 0.0
 
Date/Time
EDT
Temp
°C
App
Temp
°C
Dew
Point
°C
Rel
Hum
%
Delta-T
°C
Wind Press
QNH
hPa
Press
MSL
hPa
Rain since
9am
mm
Dir  Spd
km/h
Gust
km/h
Spd
kts
Gust
kts
12/11:30pm 17.0 13.3 11.5 70 3.0 SSE 22 39 12 21 - - 0.0

Other formats

Comma delimited format used in spreadsheet applications
http://www.bom.gov.au/fwo/IDN60801/IDN60801.94766.axf

JavaScript Object Notation format (JSON) in row-major order
http://www.bom.gov.au/fwo/IDN60801/IDN60801.94766.json

Data quality

Most of these data are generated automatically and are frequently updated. Quality checks on data are not normally performed. It is possible for incorrect values to appear. Refer to information at About Latest Weather Observations and please check the disclaimer before using these data.